sensor_id;sensor_type;location;lat;lon;timestamp;pressure;altitude;pressure_sealevel;temperature;humidity
28027;BME280;15344;52.342;-1.290;2023-02-11T00:02:04;102076.65;;;10.94;100.00
28027;BME280;15344;52.342;-1.290;2023-02-11T00:04:30;102080.86;;;11.28;100.00
28027;BME280;15344;52.342;-1.290;2023-02-11T00:06:55;102082.71;;;11.15;100.00
28027;BME280;15344;52.342;-1.290;2023-02-11T00:09:21;102080.42;;;11.12;100.00
28027;BME280;15344;52.342;-1.290;2023-02-11T00:11:45;102078.39;;;11.04;100.00
28027;BME280;15344;52.342;-1.290;2023-02-11T00:14:11;102080.89;;;11.61;100.00
28027;BME280;15344;52.342;-1.290;2023-02-11T00:16:37;102080.09;;;11.72;100.00
28027;BME280;15344;52.342;-1.290;2023-02-11T00:19:03;102082.49;;;11.62;100.00
28027;BME280;15344;52.342;-1.290;2023-02-11T00:21:28;102079.59;;;11.73;100.00
28027;BME280;15344;52.342;-1.290;2023-02-11T00:23:53;102071.37;;;11.04;100.00
28027;BME280;15344;52.342;-1.290;2023-02-11T00:26:20;102072.39;;;11.08;100.00
28027;BME280;15344;52.342;-1.290;2023-02-11T00:28:44;102068.85;;;11.44;100.00
28027;BME280;15344;52.342;-1.290;2023-02-11T00:31:09;102067.65;;;11.96;99.89
28027;BME280;15344;52.342;-1.290;2023-02-11T00:33:35;102068.17;;;11.94;100.00
28027;BME280;15344;52.342;-1.290;2023-02-11T00:36:03;102067.17;;;11.76;99.45
28027;BME280;15344;52.342;-1.290;2023-02-11T00:38:25;102061.61;;;12.11;99.33
28027;BME280;15344;52.342;-1.290;2023-02-11T00:40:50;102055.49;;;11.68;99.85
28027;BME280;15344;52.342;-1.290;2023-02-11T00:43:16;102054.98;;;11.91;99.68
28027;BME280;15344;52.342;-1.290;2023-02-11T00:45:41;102053.61;;;11.41;100.00
28027;BME280;15344;52.342;-1.290;2023-02-11T00:48:07;102057.01;;;11.29;100.00
28027;BME280;15344;52.342;-1.290;2023-02-11T00:50:32;102057.04;;;11.82;100.00
28027;BME280;15344;52.342;-1.290;2023-02-11T00:52:57;102052.84;;;11.36;100.00
28027;BME280;15344;52.342;-1.290;2023-02-11T00:55:23;102047.97;;;11.48;100.00
28027;BME280;15344;52.342;-1.290;2023-02-11T00:57:48;102048.38;;;11.69;100.00
28027;BME280;15344;52.342;-1.290;2023-02-11T01:00:14;102043.44;;;11.50;100.00
28027;BME280;15344;52.342;-1.290;2023-02-11T01:02:39;102046.42;;;11.52;100.00
28027;BME280;15344;52.342;-1.290;2023-02-11T01:05:04;102050.59;;;11.52;100.00
28027;BME280;15344;52.342;-1.290;2023-02-11T01:07:29;102049.77;;;11.62;100.00
28027;BME280;15344;52.342;-1.290;2023-02-11T01:09:55;102053.45;;;11.37;100.00
28027;BME280;15344;52.342;-1.290;2023-02-11T01:12:21;102059.35;;;10.72;100.00
28027;BME280;15344;52.342;-1.290;2023-02-11T01:14:46;102059.79;;;11.10;100.00
28027;BME280;15344;52.342;-1.290;2023-02-11T01:17:12;102058.08;;;10.98;100.00
28027;BME280;15344;52.342;-1.290;2023-02-11T01:19:37;102056.55;;;11.27;100.00
28027;BME280;15344;52.342;-1.290;2023-02-11T01:22:02;102056.50;;;11.40;100.00
28027;BME280;15344;52.342;-1.290;2023-02-11T01:24:27;102049.33;;;11.67;100.00
28027;BME280;15344;52.342;-1.290;2023-02-11T01:26:53;102049.83;;;11.43;100.00
28027;BME280;15344;52.342;-1.290;2023-02-11T01:29:18;102047.40;;;11.30;100.00
28027;BME280;15344;52.342;-1.290;2023-02-11T01:31:43;102046.18;;;10.93;100.00
28027;BME280;15344;52.342;-1.290;2023-02-11T01:34:09;102042.80;;;11.16;100.00
28027;BME280;15344;52.342;-1.290;2023-02-11T01:36:34;102041.33;;;11.23;100.00
28027;BME280;15344;52.342;-1.290;2023-02-11T01:38:59;102039.02;;;11.27;100.00
28027;BME280;15344;52.342;-1.290;2023-02-11T01:41:25;102031.87;;;11.05;100.00
28027;BME280;15344;52.342;-1.290;2023-02-11T01:43:50;102031.23;;;10.16;100.00
28027;BME280;15344;52.342;-1.290;2023-02-11T01:46:23;102027.49;;;11.54;100.00
28027;BME280;15344;52.342;-1.290;2023-02-11T01:48:42;102025.38;;;11.19;100.00
28027;BME280;15344;52.342;-1.290;2023-02-11T01:51:08;102026.17;;;10.39;100.00
28027;BME280;15344;52.342;-1.290;2023-02-11T01:53:33;102026.62;;;11.13;100.00
28027;BME280;15344;52.342;-1.290;2023-02-11T01:55:58;102030.74;;;11.22;100.00
28027;BME280;15344;52.342;-1.290;2023-02-11T01:58:23;102032.89;;;10.82;100.00
28027;BME280;15344;52.342;-1.290;2023-02-11T02:00:48;102033.70;;;11.10;100.00
28027;BME280;15344;52.342;-1.290;2023-02-11T02:03:17;102039.83;;;11.18;100.00
28027;BME280;15344;52.342;-1.290;2023-02-11T02:05:43;102035.86;;;11.51;100.00
28027;BME280;15344;52.342;-1.290;2023-02-11T02:08:10;102031.75;;;11.20;100.00
28027;BME280;15344;52.342;-1.290;2023-02-11T02:10:30;102024.03;;;10.72;100.00
28027;BME280;15344;52.342;-1.290;2023-02-11T02:12:54;102023.83;;;11.30;100.00
28027;BME280;15344;52.342;-1.290;2023-02-11T02:15:24;102026.46;;;10.27;100.00
28027;BME280;15344;52.342;-1.290;2023-02-11T02:17:54;102029.37;;;11.16;100.00
28027;BME280;15344;52.342;-1.290;2023-02-11T02:22:53;102040.01;;;10.57;100.00
28027;BME280;15344;52.342;-1.290;2023-02-11T02:25:12;102042.18;;;10.96;100.00
28027;BME280;15344;52.342;-1.290;2023-02-11T02:30:07;102042.91;;;11.43;100.00
28027;BME280;15344;52.342;-1.290;2023-02-11T02:32:26;102035.89;;;11.27;100.00
28027;BME280;15344;52.342;-1.290;2023-02-11T02:34:46;102036.52;;;11.62;100.00
28027;BME280;15344;52.342;-1.290;2023-02-11T02:37:11;102033.25;;;11.30;100.00
28027;BME280;15344;52.342;-1.290;2023-02-11T02:39:35;102033.04;;;11.42;100.00
28027;BME280;15344;52.342;-1.290;2023-02-11T02:41:57;102034.79;;;12.05;100.00
28027;BME280;15344;52.342;-1.290;2023-02-11T02:44:23;102038.20;;;11.93;99.58
28027;BME280;15344;52.342;-1.290;2023-02-11T02:46:48;102042.65;;;11.86;100.00
28027;BME280;15344;52.342;-1.290;2023-02-11T02:49:16;102044.93;;;12.08;98.66
28027;BME280;15344;52.342;-1.290;2023-02-11T02:51:47;102046.18;;;11.86;99.24
28027;BME280;15344;52.342;-1.290;2023-02-11T02:56:35;102038.91;;;11.79;100.00
28027;BME280;15344;52.342;-1.290;2023-02-11T02:59:08;102029.11;;;11.86;99.25
28027;BME280;15344;52.342;-1.290;2023-02-11T03:01:29;102027.77;;;12.09;99.01
28027;BME280;15344;52.342;-1.290;2023-02-11T03:03:50;102028.81;;;11.43;100.00
28027;BME280;15344;52.342;-1.290;2023-02-11T03:06:14;102030.86;;;11.30;100.00
28027;BME280;15344;52.342;-1.290;2023-02-11T03:08:39;102034.76;;;11.56;100.00
28027;BME280;15344;52.342;-1.290;2023-02-11T03:11:02;102034.91;;;11.81;99.12
28027;BME280;15344;52.342;-1.290;2023-02-11T03:13:30;102034.47;;;11.61;100.00
28027;BME280;15344;52.342;-1.290;2023-02-11T03:15:54;102028.06;;;12.55;97.83
28027;BME280;15344;52.342;-1.290;2023-02-11T03:18:24;102021.07;;;12.06;96.65
28027;BME280;15344;52.342;-1.290;2023-02-11T03:20:44;102018.66;;;12.07;96.47
28027;BME280;15344;52.342;-1.290;2023-02-11T03:23:10;102013.63;;;11.87;99.73
28027;BME280;15344;52.342;-1.290;2023-02-11T03:25:37;102013.25;;;12.18;98.34
28027;BME280;15344;52.342;-1.290;2023-02-11T03:28:02;102017.06;;;12.58;95.40
28027;BME280;15344;52.342;-1.290;2023-02-11T03:30:27;102019.98;;;12.26;96.70
28027;BME280;15344;52.342;-1.290;2023-02-11T03:32:51;102014.23;;;12.94;92.47
28027;BME280;15344;52.342;-1.290;2023-02-11T03:35:18;102017.54;;;12.85;91.95
28027;BME280;15344;52.342;-1.290;2023-02-11T03:37:42;102020.49;;;12.66;94.72
28027;BME280;15344;52.342;-1.290;2023-02-11T03:40:08;102016.15;;;12.76;93.18
28027;BME280;15344;52.342;-1.290;2023-02-11T03:42:34;102014.18;;;12.34;93.48
28027;BME280;15344;52.342;-1.290;2023-02-11T03:44:58;102015.20;;;12.57;95.33
28027;BME280;15344;52.342;-1.290;2023-02-11T03:47:24;102014.29;;;12.60;93.60
28027;BME280;15344;52.342;-1.290;2023-02-11T03:49:47;102015.29;;;12.01;95.87
28027;BME280;15344;52.342;-1.290;2023-02-11T03:52:11;102013.72;;;11.83;95.68
28027;BME280;15344;52.342;-1.290;2023-02-11T03:54:36;102005.90;;;12.50;95.20
28027;BME280;15344;52.342;-1.290;2023-02-11T03:57:01;102013.32;;;11.72;98.65
28027;BME280;15344;52.342;-1.290;2023-02-11T03:59:26;102012.77;;;11.66;98.51
28027;BME280;15344;52.342;-1.290;2023-02-11T04:01:52;102010.11;;;12.12;98.19
28027;BME280;15344;52.342;-1.290;2023-02-11T04:04:18;102009.00;;;12.00;98.13
28027;BME280;15344;52.342;-1.290;2023-02-11T04:06:43;102010.26;;;12.40;96.56
28027;BME280;15344;52.342;-1.290;2023-02-11T04:09:08;102016.09;;;11.84;95.92
28027;BME280;15344;52.342;-1.290;2023-02-11T04:11:34;102019.16;;;11.93;97.97
28027;BME280;15344;52.342;-1.290;2023-02-11T04:13:59;102025.18;;;11.61;98.88
28027;BME280;15344;52.342;-1.290;2023-02-11T04:16:25;102024.10;;;11.63;98.38
28027;BME280;15344;52.342;-1.290;2023-02-11T04:18:50;102028.85;;;11.66;98.88
28027;BME280;15344;52.342;-1.290;2023-02-11T04:21:16;102031.06;;;11.10;100.00
28027;BME280;15344;52.342;-1.290;2023-02-11T04:23:40;102032.29;;;11.58;100.00
28027;BME280;15344;52.342;-1.290;2023-02-11T04:26:06;102029.97;;;11.87;98.86
28027;BME280;15344;52.342;-1.290;2023-02-11T04:28:32;102032.93;;;11.73;99.10
28027;BME280;15344;52.342;-1.290;2023-02-11T04:30:57;102031.06;;;11.78;97.38
28027;BME280;15344;52.342;-1.290;2023-02-11T04:33:23;102031.66;;;11.15;99.48
28027;BME280;15344;52.342;-1.290;2023-02-11T04:35:48;102036.53;;;11.52;98.70
28027;BME280;15344;52.342;-1.290;2023-02-11T04:38:13;102040.49;;;11.28;100.00
28027;BME280;15344;52.342;-1.290;2023-02-11T04:40:39;102047.41;;;11.52;99.45
28027;BME280;15344;52.342;-1.290;2023-02-11T04:43:04;102048.03;;;12.20;96.59
28027;BME280;15344;52.342;-1.290;2023-02-11T04:45:29;102052.66;;;11.95;98.08
28027;BME280;15344;52.342;-1.290;2023-02-11T04:47:55;102055.17;;;12.14;96.21
28027;BME280;15344;52.342;-1.290;2023-02-11T04:50:21;102057.52;;;11.74;95.40
28027;BME280;15344;52.342;-1.290;2023-02-11T04:52:46;102055.40;;;11.31;98.49
28027;BME280;15344;52.342;-1.290;2023-02-11T04:55:12;102057.72;;;11.19;98.21
28027;BME280;15344;52.342;-1.290;2023-02-11T04:57:37;102062.37;;;11.79;96.43
28027;BME280;15344;52.342;-1.290;2023-02-11T05:00:02;102066.53;;;12.05;94.80
28027;BME280;15344;52.342;-1.290;2023-02-11T05:02:27;102070.84;;;11.81;96.37
28027;BME280;15344;52.342;-1.290;2023-02-11T05:04:52;102070.92;;;11.48;97.67
28027;BME280;15344;52.342;-1.290;2023-02-11T05:07:17;102068.71;;;12.18;93.13
28027;BME280;15344;52.342;-1.290;2023-02-11T05:09:43;102073.26;;;12.23;92.23
28027;BME280;15344;52.342;-1.290;2023-02-11T05:12:08;102070.69;;;12.16;92.10
28027;BME280;15344;52.342;-1.290;2023-02-11T05:14:33;102069.55;;;11.47;95.99
28027;BME280;15344;52.342;-1.290;2023-02-11T05:16:59;102072.04;;;11.47;96.30
28027;BME280;15344;52.342;-1.290;2023-02-11T05:19:24;102071.92;;;11.15;97.35
28027;BME280;15344;52.342;-1.290;2023-02-11T05:21:50;102069.18;;;11.49;96.76
28027;BME280;15344;52.342;-1.290;2023-02-11T05:24:15;102069.37;;;11.34;97.17
28027;BME280;15344;52.342;-1.290;2023-02-11T05:26:41;102068.69;;;11.52;97.22
28027;BME280;15344;52.342;-1.290;2023-02-11T05:29:06;102069.11;;;11.00;97.73
28027;BME280;15344;52.342;-1.290;2023-02-11T05:31:32;102068.27;;;10.94;99.22
28027;BME280;15344;52.342;-1.290;2023-02-11T05:33:57;102064.07;;;11.03;99.93
28027;BME280;15344;52.342;-1.290;2023-02-11T05:36:23;102065.66;;;11.08;98.11
28027;BME280;15344;52.342;-1.290;2023-02-11T05:38:48;102074.55;;;10.82;99.76
28027;BME280;15344;52.342;-1.290;2023-02-11T05:41:13;102079.55;;;11.36;96.44
28027;BME280;15344;52.342;-1.290;2023-02-11T05:43:39;102085.79;;;11.20;98.15
28027;BME280;15344;52.342;-1.290;2023-02-11T05:46:04;102089.67;;;11.60;96.41
28027;BME280;15344;52.342;-1.290;2023-02-11T05:48:30;102091.96;;;12.07;96.50
28027;BME280;15344;52.342;-1.290;2023-02-11T05:50:55;102085.43;;;11.52;95.60
28027;BME280;15344;52.342;-1.290;2023-02-11T05:53:20;102080.67;;;11.26;97.33
28027;BME280;15344;52.342;-1.290;2023-02-11T05:55:46;102075.93;;;11.23;96.90
28027;BME280;15344;52.342;-1.290;2023-02-11T05:58:11;102075.11;;;11.12;97.67
28027;BME280;15344;52.342;-1.290;2023-02-11T06:00:37;102076.85;;;11.58;95.96
28027;BME280;15344;52.342;-1.290;2023-02-11T06:03:02;102082.01;;;11.99;95.16
28027;BME280;15344;52.342;-1.290;2023-02-11T06:05:27;102086.84;;;11.56;98.43
28027;BME280;15344;52.342;-1.290;2023-02-11T06:07:53;102089.89;;;10.95;97.63
28027;BME280;15344;52.342;-1.290;2023-02-11T06:10:18;102084.85;;;11.21;97.43
28027;BME280;15344;52.342;-1.290;2023-02-11T06:12:44;102081.71;;;11.32;97.42
28027;BME280;15344;52.342;-1.290;2023-02-11T06:15:09;102079.72;;;11.86;95.23
28027;BME280;15344;52.342;-1.290;2023-02-11T06:17:35;102083.41;;;11.35;97.65
28027;BME280;15344;52.342;-1.290;2023-02-11T06:20:00;102092.43;;;11.38;97.40
28027;BME280;15344;52.342;-1.290;2023-02-11T06:22:26;102096.07;;;11.20;98.05
28027;BME280;15344;52.342;-1.290;2023-02-11T06:24:51;102095.50;;;10.95;96.46
28027;BME280;15344;52.342;-1.290;2023-02-11T06:27:16;102093.33;;;11.78;94.22
28027;BME280;15344;52.342;-1.290;2023-02-11T06:29:42;102088.04;;;11.11;96.22
28027;BME280;15344;52.342;-1.290;2023-02-11T06:32:07;102086.72;;;11.07;97.79
28027;BME280;15344;52.342;-1.290;2023-02-11T06:34:33;102087.80;;;10.96;99.73
28027;BME280;15344;52.342;-1.290;2023-02-11T06:36:58;102093.43;;;10.98;99.26
28027;BME280;15344;52.342;-1.290;2023-02-11T06:39:23;102101.94;;;11.32;98.17
28027;BME280;15344;52.342;-1.290;2023-02-11T06:41:49;102108.26;;;11.45;99.13
28027;BME280;15344;52.342;-1.290;2023-02-11T06:44:14;102105.44;;;10.95;99.91
28027;BME280;15344;52.342;-1.290;2023-02-11T06:46:39;102102.00;;;11.91;96.79
28027;BME280;15344;52.342;-1.290;2023-02-11T06:49:05;102098.29;;;11.86;96.06
28027;BME280;15344;52.342;-1.290;2023-02-11T06:51:31;102099.58;;;11.94;94.73
28027;BME280;15344;52.342;-1.290;2023-02-11T06:53:55;102101.13;;;11.72;94.91
28027;BME280;15344;52.342;-1.290;2023-02-11T06:56:22;102103.26;;;12.10;94.11
28027;BME280;15344;52.342;-1.290;2023-02-11T06:58:46;102101.29;;;11.42;96.00
28027;BME280;15344;52.342;-1.290;2023-02-11T07:01:15;102104.77;;;12.04;93.88
28027;BME280;15344;52.342;-1.290;2023-02-11T07:03:40;102103.53;;;12.32;93.03
28027;BME280;15344;52.342;-1.290;2023-02-11T07:06:02;102104.80;;;12.65;91.04
28027;BME280;15344;52.342;-1.290;2023-02-11T07:08:27;102107.71;;;12.13;92.27
28027;BME280;15344;52.342;-1.290;2023-02-11T07:10:52;102111.24;;;11.12;96.89
28027;BME280;15344;52.342;-1.290;2023-02-11T07:13:18;102115.09;;;12.06;93.09
28027;BME280;15344;52.342;-1.290;2023-02-11T07:15:43;102119.82;;;11.05;97.40
28027;BME280;15344;52.342;-1.290;2023-02-11T07:18:08;102126.25;;;11.99;95.35
28027;BME280;15344;52.342;-1.290;2023-02-11T07:20:35;102133.69;;;11.63;96.41
28027;BME280;15344;52.342;-1.290;2023-02-11T07:22:59;102137.83;;;11.10;98.75
28027;BME280;15344;52.342;-1.290;2023-02-11T07:25:25;102134.72;;;11.95;97.30
28027;BME280;15344;52.342;-1.290;2023-02-11T07:27:50;102137.94;;;11.51;97.38
28027;BME280;15344;52.342;-1.290;2023-02-11T07:30:15;102139.75;;;11.18;98.41
28027;BME280;15344;52.342;-1.290;2023-02-11T07:32:41;102138.14;;;11.23;98.21
28027;BME280;15344;52.342;-1.290;2023-02-11T07:35:06;102132.65;;;11.17;99.18
28027;BME280;15344;52.342;-1.290;2023-02-11T07:37:33;102137.42;;;11.62;97.27
28027;BME280;15344;52.342;-1.290;2023-02-11T07:39:57;102138.02;;;11.44;97.45
28027;BME280;15344;52.342;-1.290;2023-02-11T07:42:23;102143.46;;;11.56;96.12
28027;BME280;15344;52.342;-1.290;2023-02-11T07:44:48;102146.07;;;12.22;92.86
28027;BME280;15344;52.342;-1.290;2023-02-11T07:47:13;102150.53;;;12.38;92.13
28027;BME280;15344;52.342;-1.290;2023-02-11T07:49:39;102151.20;;;12.13;92.72
28027;BME280;15344;52.342;-1.290;2023-02-11T07:52:04;102157.03;;;12.71;90.51
28027;BME280;15344;52.342;-1.290;2023-02-11T07:54:30;102161.54;;;13.02;90.13
28027;BME280;15344;52.342;-1.290;2023-02-11T07:56:55;102161.50;;;12.78;89.48
28027;BME280;15344;52.342;-1.290;2023-02-11T07:59:20;102164.62;;;12.59;89.32
28027;BME280;15344;52.342;-1.290;2023-02-11T08:01:46;102161.91;;;12.69;89.01
28027;BME280;15344;52.342;-1.290;2023-02-11T08:04:11;102163.62;;;12.37;91.41
28027;BME280;15344;52.342;-1.290;2023-02-11T08:06:40;102161.65;;;11.51;94.31
28027;BME280;15344;52.342;-1.290;2023-02-11T08:09:04;102164.80;;;12.15;92.42
28027;BME280;15344;52.342;-1.290;2023-02-11T08:11:28;102164.20;;;12.38;90.83
28027;BME280;15344;52.342;-1.290;2023-02-11T08:13:54;102164.42;;;12.14;91.57
28027;BME280;15344;52.342;-1.290;2023-02-11T08:16:21;102162.23;;;12.21;92.74
28027;BME280;15344;52.342;-1.290;2023-02-11T08:18:43;102168.47;;;12.69;90.23
28027;BME280;15344;52.342;-1.290;2023-02-11T08:21:09;102164.58;;;12.60;90.21
28027;BME280;15344;52.342;-1.290;2023-02-11T08:23:35;102158.54;;;11.78;93.18
28027;BME280;15344;52.342;-1.290;2023-02-11T08:26:01;102158.20;;;12.70;90.78
28027;BME280;15344;52.342;-1.290;2023-02-11T08:28:24;102160.00;;;12.54;90.08
28027;BME280;15344;52.342;-1.290;2023-02-11T08:30:50;102162.48;;;12.49;90.02
28027;BME280;15344;52.342;-1.290;2023-02-11T08:33:15;102165.04;;;12.39;91.79
28027;BME280;15344;52.342;-1.290;2023-02-11T08:35:41;102168.37;;;12.50;90.09
28027;BME280;15344;52.342;-1.290;2023-02-11T08:38:06;102169.98;;;11.92;92.19
28027;BME280;15344;52.342;-1.290;2023-02-11T08:40:31;102175.36;;;13.16;88.45
28027;BME280;15344;52.342;-1.290;2023-02-11T08:42:57;102179.89;;;12.66;88.66
28027;BME280;15344;52.342;-1.290;2023-02-11T08:45:22;102175.92;;;13.05;87.50
28027;BME280;15344;52.342;-1.290;2023-02-11T08:47:47;102180.31;;;13.42;85.57
28027;BME280;15344;52.342;-1.290;2023-02-11T08:50:13;102180.67;;;13.65;84.44
28027;BME280;15344;52.342;-1.290;2023-02-11T08:52:38;102184.81;;;13.10;85.65
28027;BME280;15344;52.342;-1.290;2023-02-11T08:55:04;102183.60;;;13.27;85.17
28027;BME280;15344;52.342;-1.290;2023-02-11T08:57:29;102183.69;;;13.40;84.78
28027;BME280;15344;52.342;-1.290;2023-02-11T08:59:54;102182.05;;;12.67;87.76
28027;BME280;15344;52.342;-1.290;2023-02-11T09:02:19;102177.80;;;13.43;83.99
28027;BME280;15344;52.342;-1.290;2023-02-11T09:04:45;102181.57;;;13.59;83.30
28027;BME280;15344;52.342;-1.290;2023-02-11T09:07:10;102191.20;;;13.55;84.27
28027;BME280;15344;52.342;-1.290;2023-02-11T09:09:35;102187.45;;;13.48;83.52
28027;BME280;15344;52.342;-1.290;2023-02-11T09:12:00;102184.77;;;13.24;83.60
28027;BME280;15344;52.342;-1.290;2023-02-11T09:14:26;102175.62;;;13.45;84.11
28027;BME280;15344;52.342;-1.290;2023-02-11T09:16:52;102178.08;;;12.86;85.89
28027;BME280;15344;52.342;-1.290;2023-02-11T09:19:17;102180.89;;;13.26;85.70
28027;BME280;15344;52.342;-1.290;2023-02-11T09:21:42;102183.36;;;12.12;88.51
28027;BME280;15344;52.342;-1.290;2023-02-11T09:24:07;102181.90;;;13.65;85.00
28027;BME280;15344;52.342;-1.290;2023-02-11T09:26:34;102186.38;;;13.51;84.84
28027;BME280;15344;52.342;-1.290;2023-02-11T09:28:59;102186.53;;;13.59;83.72
28027;BME280;15344;52.342;-1.290;2023-02-11T09:31:25;102193.54;;;12.95;85.31
28027;BME280;15344;52.342;-1.290;2023-02-11T09:33:50;102201.51;;;13.11;84.85
28027;BME280;15344;52.342;-1.290;2023-02-11T09:36:16;102207.63;;;13.47;83.49
28027;BME280;15344;52.342;-1.290;2023-02-11T09:38:39;102206.88;;;13.25;82.19
28027;BME280;15344;52.342;-1.290;2023-02-11T09:41:04;102196.62;;;13.95;79.61
28027;BME280;15344;52.342;-1.290;2023-02-11T09:43:35;102194.05;;;13.29;82.99
28027;BME280;15344;52.342;-1.290;2023-02-11T09:45:55;102196.00;;;13.98;79.09
28027;BME280;15344;52.342;-1.290;2023-02-11T09:48:22;102193.93;;;13.54;79.47
28027;BME280;15344;52.342;-1.290;2023-02-11T09:50:48;102197.32;;;14.03;78.21
28027;BME280;15344;52.342;-1.290;2023-02-11T09:53:16;102201.39;;;14.37;76.80
28027;BME280;15344;52.342;-1.290;2023-02-11T09:55:40;102203.68;;;14.43;76.63
28027;BME280;15344;52.342;-1.290;2023-02-11T09:58:04;102199.16;;;14.53;75.88
28027;BME280;15344;52.342;-1.290;2023-02-11T10:00:32;102201.69;;;14.10;77.00
28027;BME280;15344;52.342;-1.290;2023-02-11T10:05:29;102200.23;;;14.05;78.38
28027;BME280;15344;52.342;-1.290;2023-02-11T10:07:50;102199.50;;;14.15;77.03
28027;BME280;15344;52.342;-1.290;2023-02-11T10:10:15;102195.31;;;13.57;77.59
28027;BME280;15344;52.342;-1.290;2023-02-11T10:12:47;102194.68;;;13.65;78.75
28027;BME280;15344;52.342;-1.290;2023-02-11T10:15:07;102196.32;;;13.93;76.17
28027;BME280;15344;52.342;-1.290;2023-02-11T10:17:31;102197.26;;;13.55;77.02
28027;BME280;15344;52.342;-1.290;2023-02-11T10:20:02;102201.69;;;13.63;76.47
28027;BME280;15344;52.342;-1.290;2023-02-11T10:22:18;102198.55;;;14.66;74.10
28027;BME280;15344;52.342;-1.290;2023-02-11T10:24:43;102196.85;;;14.96;72.64
28027;BME280;15344;52.342;-1.290;2023-02-11T10:27:14;102191.01;;;14.49;73.79
28027;BME280;15344;52.342;-1.290;2023-02-11T10:29:35;102188.27;;;12.68;79.21
28027;BME280;15344;52.342;-1.290;2023-02-11T10:31:57;102188.58;;;14.23;74.09
28027;BME280;15344;52.342;-1.290;2023-02-11T10:34:22;102186.10;;;13.71;75.04
28027;BME280;15344;52.342;-1.290;2023-02-11T10:36:47;102188.03;;;13.43;74.90
28027;BME280;15344;52.342;-1.290;2023-02-11T10:39:14;102189.06;;;13.61;73.99
28027;BME280;15344;52.342;-1.290;2023-02-11T10:41:40;102187.29;;;14.44;71.65
28027;BME280;15344;52.342;-1.290;2023-02-11T10:44:06;102182.35;;;14.70;71.41
28027;BME280;15344;52.342;-1.290;2023-02-11T10:46:32;102181.28;;;15.07;71.47
28027;BME280;15344;52.342;-1.290;2023-02-11T10:48:53;102182.63;;;14.68;71.20
28027;BME280;15344;52.342;-1.290;2023-02-11T10:51:22;102184.56;;;14.18;72.63
28027;BME280;15344;52.342;-1.290;2023-02-11T10:53:45;102189.90;;;13.71;72.36
28027;BME280;15344;52.342;-1.290;2023-02-11T10:56:11;102187.96;;;14.44;72.42
28027;BME280;15344;52.342;-1.290;2023-02-11T10:58:40;102196.50;;;12.65;74.87
28027;BME280;15344;52.342;-1.290;2023-02-11T11:01:00;102196.20;;;12.85;75.08
28027;BME280;15344;52.342;-1.290;2023-02-11T11:03:27;102197.26;;;13.17;73.10
28027;BME280;15344;52.342;-1.290;2023-02-11T11:05:52;102194.96;;;13.67;74.41
28027;BME280;15344;52.342;-1.290;2023-02-11T11:08:16;102194.56;;;12.99;76.22
28027;BME280;15344;52.342;-1.290;2023-02-11T11:10:43;102191.82;;;14.53;71.62
28027;BME280;15344;52.342;-1.290;2023-02-11T11:15:32;102199.45;;;15.47;67.15
28027;BME280;15344;52.342;-1.290;2023-02-11T11:18:09;102197.83;;;14.30;69.13
28027;BME280;15344;52.342;-1.290;2023-02-11T11:20:25;102195.52;;;15.53;65.87
28027;BME280;15344;52.342;-1.290;2023-02-11T11:22:50;102192.20;;;14.58;65.61
28027;BME280;15344;52.342;-1.290;2023-02-11T11:25:22;102190.99;;;15.52;63.15
28027;BME280;15344;52.342;-1.290;2023-02-11T11:27:38;102187.27;;;15.96;62.91
28027;BME280;15344;52.342;-1.290;2023-02-11T11:30:04;102189.71;;;14.71;62.87
28027;BME280;15344;52.342;-1.290;2023-02-11T11:32:30;102188.93;;;14.14;64.60
28027;BME280;15344;52.342;-1.290;2023-02-11T11:35:00;102190.08;;;14.69;65.32
28027;BME280;15344;52.342;-1.290;2023-02-11T11:37:23;102194.53;;;14.82;66.67
28027;BME280;15344;52.342;-1.290;2023-02-11T11:39:54;102190.77;;;15.49;65.23
28027;BME280;15344;52.342;-1.290;2023-02-11T11:44:36;102188.35;;;14.56;64.81
28027;BME280;15344;52.342;-1.290;2023-02-11T11:47:12;102193.84;;;15.01;63.67
28027;BME280;15344;52.342;-1.290;2023-02-11T11:49:30;102193.50;;;14.99;62.23
28027;BME280;15344;52.342;-1.290;2023-02-11T11:51:57;102188.08;;;14.37;65.90
28027;BME280;15344;52.342;-1.290;2023-02-11T11:54:18;102182.92;;;15.05;64.27
28027;BME280;15344;52.342;-1.290;2023-02-11T11:56:49;102188.94;;;14.81;64.32
28027;BME280;15344;52.342;-1.290;2023-02-11T11:59:10;102188.39;;;14.31;65.64
28027;BME280;15344;52.342;-1.290;2023-02-11T12:01:38;102193.75;;;14.81;63.49
28027;BME280;15344;52.342;-1.290;2023-02-11T12:04:06;102193.21;;;15.54;63.82
28027;BME280;15344;52.342;-1.290;2023-02-11T12:06:33;102196.89;;;15.40;62.14
28027;BME280;15344;52.342;-1.290;2023-02-11T12:08:57;102196.72;;;15.88;60.22
28027;BME280;15344;52.342;-1.290;2023-02-11T12:11:20;102200.04;;;15.23;61.59
28027;BME280;15344;52.342;-1.290;2023-02-11T12:13:46;102199.13;;;15.37;62.57
28027;BME280;15344;52.342;-1.290;2023-02-11T12:16:10;102195.73;;;14.86;64.41
28027;BME280;15344;52.342;-1.290;2023-02-11T12:18:39;102192.55;;;15.75;62.61
28027;BME280;15344;52.342;-1.290;2023-02-11T12:21:08;102186.76;;;14.60;63.46
28027;BME280;15344;52.342;-1.290;2023-02-11T12:23:31;102184.05;;;15.75;61.17
28027;BME280;15344;52.342;-1.290;2023-02-11T12:25:49;102188.02;;;15.62;62.10
28027;BME280;15344;52.342;-1.290;2023-02-11T12:28:23;102186.55;;;15.30;63.08
28027;BME280;15344;52.342;-1.290;2023-02-11T12:30:49;102186.81;;;14.81;63.83
28027;BME280;15344;52.342;-1.290;2023-02-11T12:33:07;102185.60;;;15.73;61.64
28027;BME280;15344;52.342;-1.290;2023-02-11T12:35:33;102186.12;;;15.47;61.29
28027;BME280;15344;52.342;-1.290;2023-02-11T12:40:19;102185.95;;;15.75;59.83
28027;BME280;15344;52.342;-1.290;2023-02-11T12:42:51;102191.36;;;15.37;60.78
28027;BME280;15344;52.342;-1.290;2023-02-11T12:45:17;102188.90;;;15.66;59.22